LTAY/DNZ METAR and TAF weather

Enter ICAO airport designator
Station Type Date Time Source
LTAY METAR 2019/08/19 07:50 UTC NOAA

LTAY 190750Z 06012KT CAVOK 23/09 Q1015


Station Type Date Time Source
LTAY Decoded METAR 2019/08/19 07:50 UTC NOAA

Station name not available
Aug 19, 2019 - 03:50 AM EDT / 2019.08.19 0750 UTC
Wind: from the ENE (060 degrees) at 14 MPH (12 KT):0
Visibility: greater than 7 mile(s):0
Temperature: 73 F (23 C)
Dew Point: 48 F (9 C)
Relative Humidity: 40%
Pressure (altimeter): 29.97 in. Hg (1015 hPa)
ob: LTAY 190750Z 06012KT CAVOK 23/09 Q1015
cycle: 8

Station Type Date Time Source
LTAY TAF UTC NOAA

Error!

Example: see airport list